Time;durP1;ratioP1;P1;durP2;ratioP2;P2;SDS_P1;SDS_P2;PMS_P1;PMS_P2;Temp;Humidity;BMP_temperature;BMP_pressure;BME280_temperature;BME280_humidity;BME280_pressure;Samples;Min_cycle;Max_cycle;Signal;HPM_P1;HPM_P2
2022/04/16 00:01:47;;;;;;;12.17;10.97;;;;;;;6.83;88.41;103478.81;5030795;28;20456;-44
2022/04/16 00:04:15;;;;;;;11.73;10.07;;;;;;;6.84;89.25;103472.56;5031655;28;20484;-46
2022/04/16 00:06:42;;;;;;;11.00;9.93;;;;;;;6.82;88.71;103480.59;5031737;28;20436;-43
2022/04/16 00:09:10;;;;;;;12.00;10.97;;;;;;;6.82;88.46;103477.97;5035333;28;20988;-47
2022/04/16 00:11:39;;;;;;;13.43;11.27;;;;;;;6.81;88.80;103492.16;5034749;28;20432;-48
2022/04/16 00:14:07;;;;;;;10.13;9.20;;;;;;;6.77;88.14;103492.50;5035394;28;20428;-46
2022/04/16 00:16:35;;;;;;;10.60;9.70;;;;;;;6.69;88.25;103499.16;5035254;28;20490;-44
2022/04/16 00:19:02;;;;;;;11.93;10.73;;;;;;;6.66;88.37;103502.03;5035016;28;20442;-45
2022/04/16 00:21:30;;;;;;;10.53;9.73;;;;;;;6.65;88.43;103504.78;5034356;28;20432;-47
2022/04/16 00:23:59;;;;;;;10.57;9.67;;;;;;;6.62;88.13;103511.16;5035232;28;20471;-45
2022/04/16 00:26:27;;;;;;;14.80;11.40;;;;;;;6.58;88.56;103511.44;5031009;28;20440;-49
2022/04/16 00:28:59;;;;;;;11.67;10.57;;;;;;;6.51;88.54;103507.53;5028596;28;20428;-46
2022/04/16 00:31:28;;;;;;;12.47;11.27;;;;;;;6.46;88.39;103504.31;5034251;28;20432;-47
2022/04/16 00:33:56;;;;;;;11.20;10.30;;;;;;;6.36;88.28;103509.38;5035123;28;20519;-49
2022/04/16 00:36:25;;;;;;;11.97;10.73;;;;;;;6.27;88.31;103506.50;5034874;28;20930;-45
2022/04/16 00:38:52;;;;;;;10.80;10.00;;;;;;;6.20;88.97;103497.25;5034954;28;20527;-49
2022/04/16 00:41:23;;;;;;;10.93;10.03;;;;;;;6.11;89.14;103499.56;5034556;28;20434;-45
2022/04/16 00:43:52;;;;;;;10.50;9.70;;;;;;;6.02;89.14;103500.16;5034381;28;20985;-45
2022/04/16 00:46:21;;;;;;;12.17;11.07;;;;;;;5.94;89.21;103499.78;5029941;28;20519;-45
2022/04/16 00:48:49;;;;;;;12.13;10.93;;;;;;;5.84;89.29;103508.41;5034694;28;20775;-46
2022/04/16 00:51:17;;;;;;;11.50;10.30;;;;;;;5.77;90.09;103513.25;5034534;28;20531;-48
2022/04/16 00:53:50;;;;;;;13.20;12.00;;;;;;;5.67;90.23;103504.22;5034373;28;20452;-47
2022/04/16 00:56:18;;;;;;;11.10;10.40;;;;;;;5.59;90.69;103507.31;5034585;28;20427;-44
2022/04/16 00:58:45;;;;;;;11.70;10.80;;;;;;;5.50;90.68;103509.69;5034400;28;20446;-45
2022/04/16 01:01:13;;;;;;;12.40;11.37;;;;;;;5.44;90.61;103507.44;5034428;28;20443;-44
2022/04/16 01:03:43;;;;;;;12.30;11.20;;;;;;;5.35;91.75;103508.88;5033805;28;20571;-45
2022/04/16 01:06:14;;;;;;;12.17;11.17;;;;;;;5.27;91.25;103510.28;5034440;28;20842;-44
2022/04/16 01:08:44;;;;;;;10.27;9.57;;;;;;;5.19;92.08;103509.91;5034257;28;20432;-44
2022/04/16 01:11:12;;;;;;;10.37;9.57;;;;;;;5.13;92.01;103513.81;5033922;28;20431;-44
2022/04/16 01:13:40;;;;;;;12.70;10.67;;;;;;;5.08;92.04;103521.13;5033733;28;20989;-44
2022/04/16 01:16:08;;;;;;;10.40;9.50;;;;;;;5.05;92.28;103525.78;5034174;28;20443;-44
2022/04/16 01:18:36;;;;;;;10.50;9.70;;;;;;;4.98;91.82;103522.66;5033777;28;20949;-46
2022/04/16 01:21:07;;;;;;;12.60;10.57;;;;;;;4.91;91.95;103530.09;5033902;28;20455;-44
2022/04/16 01:23:37;;;;;;;11.03;10.03;;;;;;;4.86;92.49;103528.69;5033478;28;20479;-45
2022/04/16 01:26:04;;;;;;;11.80;10.77;;;;;;;4.82;92.56;103540.38;5033872;28;20440;-46
2022/04/16 01:28:32;;;;;;;11.70;10.83;;;;;;;4.78;93.05;103544.16;5034143;28;20827;-44
2022/04/16 01:30:59;;;;;;;11.50;10.47;;;;;;;4.74;92.95;103556.72;5033619;28;20456;-44
2022/04/16 01:33:27;;;;;;;12.67;11.67;;;;;;;4.69;92.64;103548.19;5033410;28;20548;-48
2022/04/16 01:35:56;;;;;;;12.93;11.67;;;;;;;4.67;92.93;103554.50;5033741;28;20805;-44
2022/04/16 01:38:25;;;;;;;11.23;10.37;;;;;;;4.62;92.78;103556.56;5033663;28;20539;-44
2022/04/16 01:40:56;;;;;;;12.87;11.73;;;;;;;4.56;93.17;103556.94;5033567;28;20452;-44
2022/04/16 01:43:23;;;;;;;12.27;11.03;;;;;;;4.51;93.09;103561.63;5033174;28;20480;-47
2022/04/16 01:45:51;;;;;;;12.00;11.10;;;;;;;4.44;93.19;103569.06;5028616;28;20438;-47
2022/04/16 01:48:21;;;;;;;12.20;11.13;;;;;;;4.39;93.73;103565.84;5033523;28;20455;-47
2022/04/16 01:50:49;;;;;;;11.77;10.77;;;;;;;4.33;93.54;103571.47;5033077;28;20460;-44
2022/04/16 01:53:17;;;;;;;13.20;11.73;;;;;;;4.27;93.85;103567.38;5057032;22;20488;-46
2022/04/16 01:55:44;;;;;;;11.20;10.40;;;;;;;4.23;93.66;103567.63;5025676;28;20436;-49
2022/04/16 01:58:14;;;;;;;12.47;11.40;;;;;;;4.17;93.82;103570.63;5033466;28;20436;-45
2022/04/16 02:00:41;;;;;;;11.87;10.60;;;;;;;4.14;94.15;103573.44;5033108;28;20443;-45
2022/04/16 02:03:10;;;;;;;11.47;10.57;;;;;;;4.11;93.86;103576.25;5032531;28;20464;-47
2022/04/16 02:05:38;;;;;;;10.47;9.60;;;;;;;4.09;94.65;103572.84;5033119;28;20490;-47
2022/04/16 02:08:07;;;;;;;10.90;9.83;;;;;;;4.06;94.73;103581.78;5033239;28;20432;-47
2022/04/16 02:10:35;;;;;;;11.23;10.33;;;;;;;4.02;94.42;103577.63;5032979;28;20440;-47
2022/04/16 02:13:03;;;;;;;10.47;9.57;;;;;;;3.97;94.44;103577.03;5032588;28;20467;-48
2022/04/16 02:15:32;;;;;;;12.40;11.30;;;;;;;3.91;94.56;103572.91;5032986;28;20494;-49
2022/04/16 02:17:59;;;;;;;11.20;10.23;;;;;;;3.86;94.48;103571.47;5032878;28;20833;-47
2022/04/16 02:20:27;;;;;;;11.20;10.37;;;;;;;3.84;94.98;103570.72;5032662;28;20432;-45
2022/04/16 02:22:54;;;;;;;11.70;10.70;;;;;;;3.81;95.16;103577.00;5032215;28;20478;-45
2022/04/16 02:25:24;;;;;;;13.73;10.60;;;;;;;3.78;95.00;103579.81;5032874;28;20472;-46
2022/04/16 02:27:52;;;;;;;12.63;11.63;;;;;;;3.77;94.98;103586.03;5032871;28;20432;-49
2022/04/16 02:30:20;;;;;;;13.00;11.60;;;;;;;3.73;95.09;103579.19;5031850;28;20432;-48
2022/04/16 02:32:53;;;;;;;11.93;10.77;;;;;;;3.70;95.05;103583.81;5032034;28;20903;-47
2022/04/16 02:35:22;;;;;;;12.53;11.33;;;;;;;3.66;95.14;103592.81;5032839;28;20420;-46
2022/04/16 02:37:50;;;;;;;12.93;11.17;;;;;;;3.65;95.16;103591.97;5032734;28;20440;-47
2022/04/16 02:40:18;;;;;;;12.83;11.70;;;;;;;3.58;95.12;103593.25;5032368;28;20432;-45
2022/04/16 02:42:46;;;;;;;12.10;10.90;;;;;;;3.55;95.19;103600.47;5031930;28;20468;-48
2022/04/16 02:48:02;;;;;;;12.60;11.40;;;;;;;3.52;95.79;103609.41;5021108;28;20973;-45
2022/04/16 02:50:31;;;;;;;12.00;10.90;;;;;;;3.49;96.02;103601.66;5012438;28;20437;-45
2022/04/16 02:52:59;;;;;;;14.70;13.17;;;;;;;3.46;96.23;103607.09;5011957;28;20472;-46
2022/04/16 02:55:27;;;;;;;13.90;12.60;;;;;;;3.43;96.15;103612.53;5012449;28;20425;-46
2022/04/16 02:57:56;;;;;;;13.97;12.80;;;;;;;3.42;96.91;103608.19;5012747;28;20436;-45
2022/04/16 03:00:25;;;;;;;13.50;11.80;;;;;;;3.38;97.22;103614.53;5012473;28;20502;-45
2022/04/16 03:02:54;;;;;;;12.93;11.80;;;;;;;3.40;97.95;103612.69;5011933;28;20464;-48
2022/04/16 03:05:23;;;;;;;13.53;12.20;;;;;;;3.41;98.48;103616.16;5012381;28;21016;-46
2022/04/16 03:07:51;;;;;;;14.40;13.00;;;;;;;3.38;98.34;103619.81;5012262;28;20953;-46
2022/04/16 03:10:18;;;;;;;14.90;13.17;;;;;;;3.39;98.66;103618.03;5012341;28;20802;-47
2022/04/16 03:12:48;;;;;;;15.23;13.63;;;;;;;3.36;98.60;103616.41;5011697;28;20476;-49
2022/04/16 03:18:02;;;;;;;13.07;11.93;;;;;;;3.26;98.51;103615.16;5012420;28;20437;-46
2022/04/16 03:20:32;;;;;;;12.90;11.63;;;;;;;3.19;97.97;103613.81;5011930;28;20922;-46
2022/04/16 03:23:02;;;;;;;14.43;13.03;;;;;;;3.11;98.40;103602.78;4992072;28;20470;-49
2022/04/16 03:25:30;;;;;;;13.97;12.57;;;;;;;3.03;98.21;103613.72;4992450;28;20480;-44
2022/04/16 03:27:58;;;;;;;13.67;12.47;;;;;;;2.95;98.01;103610.63;4992581;28;20438;-46
2022/04/16 03:30:26;;;;;;;13.90;12.60;;;;;;;2.93;98.21;103616.91;4992276;28;20426;-47
2022/04/16 03:32:54;;;;;;;12.83;11.63;;;;;;;2.89;98.06;103618.00;4991843;28;21040;-47
2022/04/16 03:35:23;;;;;;;13.07;11.50;;;;;;;2.85;98.21;103608.53;4992650;28;20436;-49
2022/04/16 03:37:53;;;;;;;12.73;11.63;;;;;;;2.79;98.36;103613.19;4992461;28;20964;-47
2022/04/16 03:40:24;;;;;;;13.53;12.30;;;;;;;2.77;98.35;103611.56;4992374;28;20437;-47
2022/04/16 03:42:53;;;;;;;13.17;11.90;;;;;;;2.76;98.70;103613.31;4994187;28;20832;-45
2022/04/16 03:45:23;;;;;;;16.30;12.00;;;;;;;2.78;98.75;103611.47;4992059;28;20481;-45
2022/04/16 03:47:51;;;;;;;15.10;12.40;;;;;;;2.80;98.98;103614.03;5008262;28;20440;-49
2022/04/16 03:50:20;;;;;;;14.00;12.80;;;;;;;2.82;99.08;103616.56;5015905;28;20443;-49
2022/04/16 03:52:49;;;;;;;14.20;12.87;;;;;;;2.82;99.29;103613.94;5015352;28;20473;-45
2022/04/16 04:00:51;;;;;;;12.00;10.87;;;;;;;2.78;99.52;103623.78;5015730;28;20432;-47
2022/04/16 04:03:20;;;;;;;13.30;12.10;;;;;;;2.79;99.53;103625.50;5015071;28;21015;-44
2022/04/16 04:05:49;;;;;;;12.77;11.57;;;;;;;2.81;99.64;103625.44;5015584;28;21088;-49
2022/04/16 04:08:18;;;;;;;12.27;10.97;;;;;;;2.81;99.64;103621.00;5015511;28;20483;-45
2022/04/16 04:10:47;;;;;;;12.73;11.60;;;;;;;2.76;99.66;103621.22;5015652;28;20428;-47
2022/04/16 04:13:15;;;;;;;11.10;10.20;;;;;;;2.73;99.60;103623.16;5014878;28;20539;-45
2022/04/16 04:15:43;;;;;;;12.80;11.50;;;;;;;2.68;99.30;103628.69;5015579;28;20433;-46
2022/04/16 04:18:11;;;;;;;13.93;12.60;;;;;;;2.64;99.51;103619.22;5015449;28;20433;-48
2022/04/16 04:20:38;;;;;;;12.20;11.20;;;;;;;2.60;98.98;103627.31;5015260;28;20429;-46
2022/04/16 04:23:07;;;;;;;12.47;11.47;;;;;;;2.61;99.36;103632.53;5014711;28;20997;-44
2022/04/16 04:25:34;;;;;;;13.43;12.13;;;;;;;2.59;99.23;103634.38;5015367;28;20531;-45
2022/04/16 04:28:04;;;;;;;12.50;11.43;;;;;;;2.58;99.14;103629.19;5015375;28;20433;-51
2022/04/16 04:30:31;;;;;;;11.43;10.53;;;;;;;2.58;99.09;103632.69;5015061;28;20425;-47
2022/04/16 04:32:59;;;;;;;12.53;11.63;;;;;;;2.56;98.71;103631.06;5014599;28;20472;-43
2022/04/16 04:35:27;;;;;;;11.80;10.40;;;;;;;2.58;98.71;103632.69;5014996;28;20433;-49
2022/04/16 04:37:55;;;;;;;11.70;10.57;;;;;;;2.77;99.46;103635.28;5015283;28;20436;-47
2022/04/16 04:40:22;;;;;;;12.43;11.20;;;;;;;3.07;99.62;103640.78;5014969;28;20437;-48
2022/04/16 04:42:50;;;;;;;11.47;10.63;;;;;;;3.36;100.00;103648.06;5014423;28;20461;-52
2022/04/16 04:45:19;;;;;;;12.13;10.93;;;;;;;3.69;99.79;103645.44;5010101;28;20483;-43
2022/04/16 04:47:47;;;;;;;11.40;10.43;;;;;;;4.28;99.47;103642.19;5005152;28;20435;-46
2022/04/16 04:50:15;;;;;;;12.03;10.97;;;;;;;4.96;99.30;103639.09;5014492;28;20961;-49
2022/04/16 04:52:42;;;;;;;10.13;9.23;;;;;;;5.75;99.05;103642.25;5013511;28;21012;-45
2022/04/16 04:55:12;;;;;;;10.20;9.20;;;;;;;6.49;99.27;103641.97;5014807;28;20436;-47
2022/04/16 04:57:40;;;;;;;9.37;8.47;;;;;;;7.16;99.21;103639.22;5014586;28;20433;-45
2022/04/16 05:00:09;;;;;;;7.93;7.43;;;;;;;7.91;98.27;103647.28;5014747;28;20433;-47
2022/04/16 05:02:42;;;;;;;8.40;7.60;;;;;;;8.68;95.57;103642.47;5013301;28;20838;-46
2022/04/16 05:05:10;;;;;;;9.03;8.00;;;;;;;9.51;92.48;103653.88;5014645;28;20511;-49
2022/04/16 05:07:38;;;;;;;8.23;7.53;;;;;;;10.37;88.17;103656.75;5014383;28;20447;-46
2022/04/16 05:10:07;;;;;;;7.33;6.83;;;;;;;11.25;84.71;103655.59;5014488;28;20440;-45
2022/04/16 05:12:35;;;;;;;9.20;8.50;;;;;;;12.01;78.45;103654.31;5013711;28;20453;-46
2022/04/16 05:15:04;;;;;;;8.60;7.80;;;;;;;12.75;73.71;103659.09;5014265;28;20425;-47
2022/04/16 05:17:31;;;;;;;9.17;8.40;;;;;;;13.44;70.49;103660.78;5014436;28;20524;-48
2022/04/16 05:20:03;;;;;;;8.33;7.63;;;;;;;14.02;67.22;103664.09;5014332;28;20426;-49
2022/04/16 05:22:31;;;;;;;7.80;7.20;;;;;;;14.66;64.77;103672.09;5013471;28;20461;-49
2022/04/16 05:24:59;;;;;;;8.03;7.47;;;;;;;15.07;61.17;103670.63;5014094;28;20794;-47
2022/04/16 05:27:27;;;;;;;8.00;7.33;;;;;;;15.77;59.95;103675.84;5014014;28;20433;-48
2022/04/16 05:30:06;;;;;;;7.37;6.87;;;;;;;16.17;57.71;103675.22;5013585;28;21005;-45
2022/04/16 05:32:35;;;;;;;6.80;6.37;;;;;;;16.77;56.49;103672.34;5013279;28;20475;-51
2022/04/16 05:35:06;;;;;;;7.17;6.47;;;;;;;17.15;54.84;103671.69;5014119;28;20433;-50
2022/04/16 05:37:34;;;;;;;8.00;7.40;;;;;;;17.42;51.65;103684.81;5014090;28;20448;-51
2022/04/16 05:40:03;;;;;;;8.70;8.00;;;;;;;17.44;50.73;103677.41;5013760;28;20533;-50
2022/04/16 05:42:30;;;;;;;8.40;7.90;;;;;;;17.92;50.83;103684.56;5013179;28;20469;-52
2022/04/16 05:45:02;;;;;;;8.03;7.57;;;;;;;17.93;47.95;103688.97;5006534;28;20453;-47
2022/04/16 05:47:29;;;;;;;8.00;7.43;;;;;;;17.90;48.95;103692.00;4993898;28;20939;-50
2022/04/16 05:49:57;;;;;;;9.27;8.57;;;;;;;17.69;46.47;103691.72;4994145;28;20438;-48
2022/04/16 05:52:27;;;;;;;8.00;7.40;;;;;;;17.65;41.61;103691.22;4993108;28;20469;-47
2022/04/16 05:54:55;;;;;;;7.67;7.17;;;;;;;17.81;43.65;103682.25;4994159;28;20440;-49
2022/04/16 05:57:25;;;;;;;8.00;7.40;;;;;;;17.41;46.80;103685.84;4994172;28;20429;-51
2022/04/16 05:59:53;;;;;;;6.63;6.27;;;;;;;17.64;47.06;103688.72;4993128;28;20438;-48
2022/04/16 06:02:21;;;;;;;7.70;7.10;;;;;;;17.88;45.72;103694.06;4993226;28;20472;-51
2022/04/16 06:04:48;;;;;;;9.10;8.50;;;;;;;17.85;44.01;103689.00;4992928;28;20436;-49
2022/04/16 06:07:17;;;;;;;7.90;7.30;;;;;;;17.59;42.82;103689.22;4993665;28;20492;-52
2022/04/16 06:09:46;;;;;;;8.77;8.17;;;;;;;17.59;44.00;103685.69;4993826;28;20433;-49
2022/04/16 06:12:13;;;;;;;7.73;7.23;;;;;;;17.80;44.54;103687.84;4993132;28;20474;-50
2022/04/16 06:14:41;;;;;;;8.53;7.93;;;;;;;18.05;41.84;103687.56;4993720;28;20436;-53
2022/04/16 06:17:09;;;;;;;9.07;8.50;;;;;;;17.22;40.81;103685.34;4993685;28;20532;-46
2022/04/16 06:19:36;;;;;;;8.43;7.60;;;;;;;17.82;42.90;103677.69;5001132;28;20439;-48
2022/04/16 06:22:05;;;;;;;10.20;9.40;;;;;;;17.67;43.85;103688.38;5007307;28;20475;-50
2022/04/16 06:24:32;;;;;;;7.10;6.70;;;;;;;17.69;43.02;103691.72;5013010;28;20436;-47
2022/04/16 06:27:02;;;;;;;8.33;7.53;;;;;;;17.65;45.80;103693.09;5012716;28;20482;-46
2022/04/16 06:29:30;;;;;;;8.77;8.17;;;;;;;17.43;41.87;103691.06;5011706;28;20433;-51
2022/04/16 06:31:57;;;;;;;7.70;7.10;;;;;;;17.76;43.92;103692.72;5012031;28;20985;-48
2022/04/16 06:34:27;;;;;;;10.13;8.33;;;;;;;17.74;45.27;103697.44;5012840;28;20429;-50
2022/04/16 06:36:54;;;;;;;9.67;9.00;;;;;;;17.56;42.84;103696.84;5013089;28;20429;-50
2022/04/16 06:39:22;;;;;;;8.10;7.53;;;;;;;17.63;45.07;103700.50;5012721;28;20438;-49
2022/04/16 06:41:49;;;;;;;7.10;6.70;;;;;;;17.70;43.94;103701.53;5012327;28;20464;-52
2022/04/16 06:44:18;;;;;;;8.30;7.60;;;;;;;17.84;45.24;103698.09;5012660;28;20733;-53
2022/04/16 06:46:46;;;;;;;8.93;8.37;;;;;;;18.19;44.64;103707.59;5012577;28;20472;-49
2022/04/16 06:49:14;;;;;;;7.43;6.83;;;;;;;18.28;41.49;103706.53;5012920;28;20800;-52
2022/04/16 06:51:41;;;;;;;7.73;7.17;;;;;;;18.29;44.14;103712.78;5012033;28;22030;-52
2022/04/16 06:54:09;;;;;;;8.77;8.00;;;;;;;18.25;42.06;103704.19;5012344;28;20464;-51
2022/04/16 06:56:36;;;;;;;7.57;7.07;;;;;;;17.58;39.39;103709.13;5012583;28;20435;-53
2022/04/16 06:59:04;;;;;;;8.27;7.67;;;;;;;17.47;44.23;103714.00;5011675;28;20926;-50
2022/04/16 07:01:33;;;;;;;8.33;7.60;;;;;;;16.91;42.80;103721.06;5011933;28;20436;-53
2022/04/16 07:04:01;;;;;;;7.97;7.43;;;;;;;16.68;42.52;103725.41;5012490;28;20587;-49
2022/04/16 07:06:29;;;;;;;10.57;8.10;;;;;;;16.69;44.21;103726.25;5012283;28;20506;-49
2022/04/16 07:08:56;;;;;;;7.90;7.30;;;;;;;16.40;43.49;103714.00;5012357;28;20433;-51
2022/04/16 07:11:24;;;;;;;8.17;7.67;;;;;;;16.16;42.99;103721.16;5011598;28;20433;-51
2022/04/16 07:13:52;;;;;;;10.87;10.17;;;;;;;15.97;45.51;103717.69;5012087;28;20920;-48
2022/04/16 07:16:19;;;;;;;10.47;9.77;;;;;;;15.60;44.80;103718.97;5012266;28;20425;-47
2022/04/16 07:18:48;;;;;;;10.57;10.00;;;;;;;15.20;47.05;103728.34;5012341;28;20438;-52
2022/04/16 07:21:16;;;;;;;11.33;10.60;;;;;;;15.17;47.85;103733.22;5012259;28;20432;-52
2022/04/16 07:23:43;;;;;;;11.03;10.43;;;;;;;15.11;47.04;103733.84;5011555;28;20464;-50
2022/04/16 07:26:11;;;;;;;11.30;10.77;;;;;;;14.66;47.95;103741.94;5012035;28;20476;-50
2022/04/16 07:28:39;;;;;;;11.40;10.80;;;;;;;14.45;48.52;103744.88;5012354;28;20446;-49
2022/04/16 07:31:06;;;;;;;12.27;11.47;;;;;;;13.76;49.07;103739.03;5012142;28;20802;-47
2022/04/16 07:33:34;;;;;;;11.33;10.53;;;;;;;13.44;49.67;103743.91;5011533;28;20473;-47
2022/04/16 07:36:03;;;;;;;13.03;12.00;;;;;;;13.07;51.88;103741.03;5012204;28;20433;-50
2022/04/16 07:38:31;;;;;;;12.00;11.20;;;;;;;12.80;52.53;103746.22;5012012;28;20439;-53
2022/04/16 07:40:58;;;;;;;12.20;11.47;;;;;;;12.63;52.54;103753.94;5011727;28;20425;-52
2022/04/16 07:43:27;;;;;;;11.67;10.97;;;;;;;12.46;52.86;103738.53;5011496;28;20475;-51
2022/04/16 07:45:54;;;;;;;11.30;10.50;;;;;;;11.72;55.08;103749.59;5012145;28;20429;-46
2022/04/16 07:48:22;;;;;;;11.50;10.60;;;;;;;11.32;57.16;103747.56;5011983;28;20838;-52
2022/04/16 07:50:49;;;;;;;11.17;10.33;;;;;;;11.19;57.72;103757.59;5011734;28;20433;-51
2022/04/16 07:53:18;;;;;;;11.50;10.60;;;;;;;11.15;57.95;103753.47;5011527;28;20465;-47
2022/04/16 07:55:47;;;;;;;10.33;9.73;;;;;;;11.16;58.54;103762.34;5012081;28;20439;-46
2022/04/16 07:58:14;;;;;;;10.50;9.80;;;;;;;11.32;58.44;103766.28;5012085;28;20436;-48
2022/04/16 08:00:42;;;;;;;10.37;9.47;;;;;;;11.37;56.77;103769.44;5011761;28;20475;-49
2022/04/16 08:03:09;;;;;;;8.87;8.23;;;;;;;11.35;55.77;103774.03;5011171;28;20472;-48
2022/04/16 08:05:37;;;;;;;9.73;9.17;;;;;;;11.60;55.62;103775.50;5010234;28;20439;-48
2022/04/16 08:08:05;;;;;;;9.83;9.20;;;;;;;11.52;55.92;103778.84;5011827;28;20498;-49
2022/04/16 08:10:34;;;;;;;10.63;9.90;;;;;;;11.52;57.25;103776.16;5011373;28;20433;-48
2022/04/16 08:13:02;;;;;;;10.23;9.20;;;;;;;11.34;56.49;103783.03;5011105;28;20555;-48
2022/04/16 08:15:30;;;;;;;10.80;10.00;;;;;;;11.44;56.02;103783.13;5011791;28;20532;-48
2022/04/16 08:17:58;;;;;;;9.80;9.20;;;;;;;11.51;55.95;103777.13;5010808;28;20439;-45
2022/04/16 08:20:25;;;;;;;9.87;9.20;;;;;;;11.47;56.79;103777.50;5010701;28;20433;-45
2022/04/16 08:22:59;;;;;;;9.50;8.90;;;;;;;11.67;56.29;103782.03;5011182;28;20475;-50
2022/04/16 08:25:45;;;;;;;9.30;8.70;;;;;;;11.65;56.25;103778.63;5011647;28;21013;-45
2022/04/16 08:28:14;;;;;;;8.87;8.37;;;;;;;11.28;57.40;103774.69;5012627;28;20981;-45
2022/04/16 08:30:42;;;;;;;9.20;8.50;;;;;;;11.22;56.45;103777.88;5014859;28;20807;-47
2022/04/16 08:33:15;;;;;;;8.87;8.27;;;;;;;11.18;56.52;103777.28;5014058;28;20464;-45
2022/04/16 08:35:43;;;;;;;9.37;8.43;;;;;;;11.22;56.49;103781.41;5015166;28;20433;-47
2022/04/16 08:38:12;;;;;;;8.27;7.73;;;;;;;10.93;55.61;103782.94;5015257;28;20428;-47
2022/04/16 08:40:39;;;;;;;8.47;7.87;;;;;;;10.86;56.59;103797.75;5014838;28;20439;-46
2022/04/16 08:43:14;;;;;;;7.60;7.10;;;;;;;10.73;57.93;103789.03;5013927;28;20816;-45
2022/04/16 08:45:43;;;;;;;8.10;7.60;;;;;;;10.86;57.39;103789.75;5009839;28;21000;-45
2022/04/16 08:48:14;;;;;;;8.03;7.53;;;;;;;10.97;56.41;103793.25;5006556;28;20999;-46
2022/04/16 08:50:42;;;;;;;8.03;7.53;;;;;;;10.84;55.98;103792.53;5014741;28;20457;-46
2022/04/16 08:53:09;;;;;;;6.60;6.30;;;;;;;11.01;55.87;103783.16;5014197;28;20495;-46
2022/04/16 08:55:37;;;;;;;6.00;5.70;;;;;;;10.99;54.31;103790.47;5014760;28;20429;-45
2022/04/16 08:58:05;;;;;;;5.60;5.30;;;;;;;11.42;53.03;103783.25;5014671;28;20470;-45
2022/04/16 09:00:34;;;;;;;5.27;4.90;;;;;;;11.46;50.97;103790.03;5014594;28;20437;-45
2022/04/16 09:03:06;;;;;;;5.33;5.03;;;;;;;11.44;51.59;103786.63;5014013;28;20469;-45
2022/04/16 09:05:34;;;;;;;6.67;5.07;;;;;;;11.68;52.39;103786.38;5014599;28;20429;-47
2022/04/16 09:08:03;;;;;;;5.37;5.07;;;;;;;11.47;51.00;103788.19;5014457;28;20465;-46
2022/04/16 09:10:33;;;;;;;5.40;5.00;;;;;;;11.44;51.12;103802.66;5014242;28;20472;-45
2022/04/16 09:13:02;;;;;;;5.03;4.70;;;;;;;11.49;50.85;103795.13;5013836;28;20462;-44
2022/04/16 09:15:31;;;;;;;5.20;4.90;;;;;;;11.42;51.26;103796.59;5014469;28;20441;-48
2022/04/16 09:18:02;;;;;;;5.00;4.80;;;;;;;11.56;50.63;103792.75;5014404;28;20429;-46
2022/04/16 09:20:34;;;;;;;4.77;4.47;;;;;;;11.54;50.95;103800.94;5014141;28;20421;-45
2022/04/16 09:23:03;;;;;;;4.20;4.10;;;;;;;11.88;48.54;103798.97;5013551;28;20477;-46
2022/04/16 09:25:32;;;;;;;4.37;4.17;;;;;;;12.02;49.35;103792.41;5014448;28;20436;-45
2022/04/16 09:28:06;;;;;;;4.20;4.00;;;;;;;12.05;46.75;103792.16;5003777;28;20576;-46
2022/04/16 09:30:34;;;;;;;4.30;4.00;;;;;;;12.25;45.05;103793.09;4994223;28;21045;-45
2022/04/16 09:33:05;;;;;;;3.70;3.50;;;;;;;12.02;44.91;103785.25;4994028;28;20477;-44
2022/04/16 09:35:35;;;;;;;3.50;3.40;;;;;;;11.88;46.28;103793.63;4994325;28;20795;-45
2022/04/16 09:38:12;;;;;;;4.30;4.00;;;;;;;11.83;47.46;103797.63;4994646;28;20441;-48
2022/04/16 09:40:40;;;;;;;4.33;4.13;;;;;;;11.66;47.79;103796.38;4993451;28;20958;-46
2022/04/16 09:43:09;;;;;;;4.30;4.00;;;;;;;11.53;48.80;103791.19;4993778;28;20508;-45
2022/04/16 09:45:40;;;;;;;4.70;4.30;;;;;;;11.45;48.26;103790.16;4996878;28;20438;-47
2022/04/16 09:48:12;;;;;;;4.53;4.33;;;;;;;11.86;46.63;103794.69;5005576;28;21029;-46
2022/04/16 09:50:41;;;;;;;4.20;4.00;;;;;;;12.07;45.48;103791.03;5013578;28;20436;-46
2022/04/16 09:53:09;;;;;;;4.40;4.20;;;;;;;12.25;46.17;103787.72;5013013;28;20496;-46
2022/04/16 09:55:37;;;;;;;4.27;4.17;;;;;;;12.24;45.49;103788.72;5013537;28;20440;-45
2022/04/16 09:58:07;;;;;;;4.27;4.07;;;;;;;12.25;45.84;103775.22;5013484;28;20433;-45
2022/04/16 10:00:37;;;;;;;4.40;4.07;;;;;;;12.61;46.26;103768.44;5013209;28;20503;-45
2022/04/16 10:03:27;;;;;;;4.13;3.93;;;;;;;12.40;46.35;103775.69;5012854;28;20476;-45
2022/04/16 10:05:56;;;;;;;3.90;3.70;;;;;;;12.17;45.92;103791.09;5013512;28;20447;-44
2022/04/16 10:08:27;;;;;;;3.90;3.80;;;;;;;11.84;48.67;103786.81;5013178;28;20469;-44
2022/04/16 10:10:57;;;;;;;4.63;4.23;;;;;;;11.90;47.11;103785.44;5013057;28;20795;-45
2022/04/16 10:13:30;;;;;;;4.03;3.93;;;;;;;11.81;47.67;103780.88;5012764;28;20464;-46
2022/04/16 10:16:05;;;;;;;3.93;3.73;;;;;;;12.02;47.63;103773.69;5013324;28;20425;-45
2022/04/16 10:18:35;;;;;;;3.80;3.60;;;;;;;11.80;45.76;103782.69;5012878;28;20433;-47
2022/04/16 10:21:04;;;;;;;3.90;3.73;;;;;;;11.91;46.27;103771.97;5012790;28;20998;-46
2022/04/16 10:23:40;;;;;;;3.97;3.77;;;;;;;12.16;44.98;103779.53;5012573;28;20464;-47
2022/04/16 10:26:09;;;;;;;3.90;3.70;;;;;;;12.15;45.02;103774.34;5013009;28;20426;-46
2022/04/16 10:28:41;;;;;;;3.40;3.30;;;;;;;12.09;47.51;103774.88;5013071;28;20483;-45
2022/04/16 10:31:23;;;;;;;3.70;3.50;;;;;;;12.39;45.87;103776.69;4997163;28;20773;-45
2022/04/16 10:34:07;;;;;;;3.90;3.60;;;;;;;12.42;44.36;103785.31;5000285;28;20449;-46
2022/04/16 10:36:37;;;;;;;3.93;3.73;;;;;;;12.56;43.85;103773.38;5003614;28;20475;-46
2022/04/16 10:39:15;;;;;;;3.97;3.70;;;;;;;12.70;45.95;103771.16;5007980;28;20425;-46
2022/04/16 10:41:53;;;;;;;3.87;3.67;;;;;;;12.89;45.20;103765.00;5011751;28;20507;-47
2022/04/16 10:44:22;;;;;;;3.80;3.63;;;;;;;13.06;43.98;103764.31;5012683;28;20409;-45
2022/04/16 10:46:50;;;;;;;3.70;3.60;;;;;;;12.86;42.37;103761.75;5003265;28;20442;-44
2022/04/16 10:49:20;;;;;;;3.30;3.13;;;;;;;12.81;42.27;103769.34;5009066;28;20469;-45
2022/04/16 10:51:50;;;;;;;3.37;3.27;;;;;;;12.82;42.56;103768.34;5011350;28;20457;-46
2022/04/16 10:54:31;;;;;;;6.40;3.10;;;;;;;13.18;42.70;103757.84;5012462;28;20467;-47
2022/04/16 10:57:00;;;;;;;3.20;2.97;;;;;;;13.37;41.33;103764.22;5012275;28;20945;-44
2022/04/16 10:59:37;;;;;;;3.20;3.00;;;;;;;13.32;40.69;103761.13;5012560;28;20425;-46
2022/04/16 11:02:16;;;;;;;2.80;2.70;;;;;;;13.13;39.07;103751.22;5011125;28;20456;-48
2022/04/16 11:04:55;;;;;;;2.73;2.63;;;;;;;13.01;40.30;103752.31;5012506;28;20791;-45
2022/04/16 11:07:24;;;;;;;3.07;2.97;;;;;;;13.28;40.62;103755.19;5012575;28;20444;-48
2022/04/16 11:09:52;;;;;;;2.90;2.70;;;;;;;13.38;38.41;103752.50;5012319;28;20483;-45
2022/04/16 11:12:21;;;;;;;3.10;3.00;;;;;;;13.45;39.65;103748.25;5011462;28;20457;-46
2022/04/16 11:14:50;;;;;;;4.00;3.80;;;;;;;13.55;39.77;103752.63;5011686;28;20435;-45
2022/04/16 11:17:19;;;;;;;4.97;4.57;;;;;;;13.48;38.02;103759.53;5011969;28;20444;-49
2022/04/16 11:19:59;;;;;;;3.63;3.43;;;;;;;13.49;36.90;103742.47;5012309;28;20425;-51
2022/04/16 11:22:26;;;;;;;3.10;3.00;;;;;;;13.60;37.40;103754.88;5011107;28;20523;-52
2022/04/16 11:24:55;;;;;;;2.40;2.30;;;;;;;13.67;37.23;103747.94;5012306;28;20429;-43
2022/04/16 11:35:57;;;;;;;2.90;2.77;;;;;;;13.22;36.49;103745.03;5012041;28;21132;-50
2022/04/16 11:38:28;;;;;;;2.67;2.57;;;;;;;13.30;36.59;103745.16;5011693;28;20436;-51
2022/04/16 11:40:56;;;;;;;2.70;2.60;;;;;;;13.17;37.32;103748.13;5011962;28;20468;-52
2022/04/16 11:43:24;;;;;;;2.90;2.70;;;;;;;13.14;38.35;103745.72;4999619;28;20465;-46
2022/04/16 11:45:52;;;;;;;2.60;2.50;;;;;;;13.31;36.24;103738.81;4991859;28;20440;-52
2022/04/16 11:48:20;;;;;;;2.97;2.87;;;;;;;13.37;34.23;103737.41;4992272;28;20944;-48
2022/04/16 11:50:48;;;;;;;2.63;2.53;;;;;;;13.46;33.89;103736.56;4991729;28;20442;-49